Time;durP1;ratioP1;P1;durP2;ratioP2;P2;SDS_P1;SDS_P2;PMS_P1;PMS_P2;Temp;Humidity;BMP_temperature;BMP_pressure;BME280_temperature;BME280_humidity;BME280_pressure;Samples;Min_cycle;Max_cycle;Signal;HPM_P1;HPM_P2
2023/05/19 00:00:46;;;;;;;0.90;0.80;;;;;;;21.89;30.69;101587.69;4556611;28;20885;-63
2023/05/19 00:02:56;;;;;;;1.45;0.80;;;;;;;21.88;30.68;101586.03;4554018;28;20291;-63
2023/05/19 00:05:09;;;;;;;1.05;0.90;;;;;;;21.92;30.66;101593.56;4553771;28;20112;-63
2023/05/19 00:07:26;;;;;;;1.02;0.80;;;;;;;21.86;30.78;101583.50;4556899;28;20513;-63
2023/05/19 00:09:37;;;;;;;0.80;0.80;;;;;;;21.91;30.76;101591.06;4555531;28;20037;-63
2023/05/19 00:11:47;;;;;;;1.05;0.80;;;;;;;21.89;30.51;101588.53;4555569;28;20044;-63
2023/05/19 00:13:59;;;;;;;1.08;0.88;;;;;;;21.88;30.37;101577.41;4554436;27;20041;-63
2023/05/19 00:16:10;;;;;;;1.00;0.90;;;;;;;21.90;30.91;101580.72;4554466;28;20044;-63
2023/05/19 00:18:20;;;;;;;1.52;0.80;;;;;;;21.86;30.49;101577.75;4557525;28;20218;-63
2023/05/19 00:20:30;;;;;;;0.88;0.88;;;;;;;21.85;30.63;101576.03;4555487;28;20039;-63
2023/05/19 00:22:42;;;;;;;0.80;0.80;;;;;;;21.86;30.34;101577.75;4556019;28;20024;-63
2023/05/19 00:24:53;;;;;;;1.15;0.90;;;;;;;21.83;30.16;101574.72;4560836;28;20059;-63
2023/05/19 00:27:03;;;;;;;0.75;0.70;;;;;;;21.88;30.60;101580.28;4555226;28;20040;-63
2023/05/19 00:29:17;;;;;;;1.05;0.70;;;;;;;21.85;30.31;101578.91;4555630;28;20041;-63
2023/05/19 00:31:27;;;;;;;0.77;0.75;;;;;;;21.86;30.78;101574.88;4554849;28;20040;-63
2023/05/19 00:33:38;;;;;;;1.35;0.73;;;;;;;21.86;30.62;101577.75;4554480;28;20596;-63
2023/05/19 00:35:49;;;;;;;1.33;0.90;;;;;;;21.86;30.49;101569.13;4554417;28;20047;-62
2023/05/19 00:38:00;;;;;;;1.23;0.80;;;;;;;21.82;30.57;101565.25;4569733;27;20901;-63
2023/05/19 00:40:10;;;;;;;1.17;0.85;;;;;;;21.83;30.70;101566.97;4554970;28;20063;-63
2023/05/19 00:42:21;;;;;;;1.20;0.90;;;;;;;21.83;30.20;101566.09;4554488;28;20025;-62
2023/05/19 00:44:31;;;;;;;1.33;0.75;;;;;;;21.85;30.31;101570.31;4555485;28;20036;-62
2023/05/19 00:46:41;;;;;;;1.73;0.73;;;;;;;21.84;30.22;101562.03;4555210;28;20104;-63
2023/05/19 00:48:52;;;;;;;1.05;0.80;;;;;;;21.85;30.24;101567.44;4555567;28;20032;-63
2023/05/19 00:51:05;;;;;;;1.55;0.70;;;;;;;21.83;30.41;101564.09;4554503;28;20456;-62
2023/05/19 00:53:17;;;;;;;1.20;0.80;;;;;;;21.84;30.58;101562.88;4552724;28;20025;-63
2023/05/19 00:55:30;;;;;;;1.42;1.10;;;;;;;21.84;30.62;101568.63;4555143;28;20028;-62
2023/05/19 00:57:41;;;;;;;1.75;1.00;;;;;;;21.84;30.53;101571.50;4554959;28;20024;-63
2023/05/19 00:59:52;;;;;;;1.15;0.93;;;;;;;21.80;30.33;101567.63;4555044;28;20103;-63
2023/05/19 01:02:03;;;;;;;1.00;0.90;;;;;;;21.82;30.32;101571.00;4554820;28;20087;-63
2023/05/19 01:04:20;;;;;;;0.70;0.70;;;;;;;21.82;30.39;101565.25;4555006;28;20037;-63
2023/05/19 01:06:31;;;;;;;0.88;0.80;;;;;;;21.80;30.13;101567.63;4553815;28;20043;-63
2023/05/19 01:08:41;;;;;;;1.20;0.82;;;;;;;21.82;29.99;101567.28;4553290;28;20035;-63
2023/05/19 01:10:52;;;;;;;1.40;0.90;;;;;;;21.81;29.98;101568.47;4554935;28;20571;-62
2023/05/19 01:13:05;;;;;;;1.05;0.80;;;;;;;21.81;29.96;101569.34;4553314;28;20591;-62
2023/05/19 01:15:15;;;;;;;1.27;0.90;;;;;;;21.77;29.98;101562.59;4554415;28;20043;-63
2023/05/19 01:17:35;;;;;;;1.75;1.00;;;;;;;21.80;30.00;101572.56;4552862;28;20814;-62
2023/05/19 01:20:09;;;;;;;1.10;1.00;;;;;;;21.78;30.21;101561.41;4554783;28;20083;-63
2023/05/19 01:22:59;;;;;;;1.42;0.75;;;;;;;21.79;30.33;101565.97;4553938;28;20036;-63
2023/05/19 01:25:41;;;;;;;0.77;0.75;;;;;;;21.78;30.64;101561.41;4480814;28;20052;-63
2023/05/19 01:28:28;;;;;;;0.95;0.70;;;;;;;21.77;30.74;101559.72;4535837;27;20037;-63
2023/05/19 01:30:40;;;;;;;0.90;0.80;;;;;;;21.77;30.61;101562.59;4554463;28;20032;-63
2023/05/19 01:32:57;;;;;;;0.88;0.73;;;;;;;21.78;30.52;101564.28;4552924;28;20036;-63
2023/05/19 01:35:08;;;;;;;2.00;1.15;;;;;;;21.71;30.44;101549.59;4553494;28;20051;-63
2023/05/19 01:37:20;;;;;;;1.35;1.08;;;;;;;21.72;30.00;101548.41;4551782;28;20043;-63
2023/05/19 01:39:32;;;;;;;1.15;0.90;;;;;;;21.75;30.08;101559.25;4552778;28;21114;-63
2023/05/19 01:41:44;;;;;;;1.30;1.00;;;;;;;21.74;29.67;101557.53;4554370;28;20159;-63
2023/05/19 01:43:56;;;;;;;1.00;0.90;;;;;;;21.73;29.53;101557.88;4553507;28;20214;-63
2023/05/19 01:46:07;;;;;;;1.35;0.90;;;;;;;21.75;29.31;101569.88;4553099;28;20071;-62
2023/05/19 01:48:18;;;;;;;0.95;0.82;;;;;;;21.76;29.50;101572.41;4553987;28;20045;-63
2023/05/19 01:50:29;;;;;;;0.98;0.80;;;;;;;21.76;29.46;101571.56;4541307;28;20041;-63
2023/05/19 01:52:40;;;;;;;0.77;0.75;;;;;;;21.73;29.90;101558.72;4542853;28;20094;-63
2023/05/19 01:54:51;;;;;;;0.70;0.70;;;;;;;21.74;29.29;101569.03;4553502;28;20674;-63
2023/05/19 01:57:31;;;;;;;1.17;0.70;;;;;;;21.75;29.67;101567.00;4555224;28;20028;-63
2023/05/19 02:00:04;;;;;;;0.82;0.80;;;;;;;21.73;29.61;101561.59;4541690;28;20662;-63
2023/05/19 02:02:48;;;;;;;1.00;0.90;;;;;;;21.72;29.82;101567.69;4554423;28;20360;-63
2023/05/19 02:05:30;;;;;;;1.35;0.80;;;;;;;21.72;30.21;101571.41;4553765;28;20570;-62
2023/05/19 02:07:48;;;;;;;1.55;0.77;;;;;;;21.71;30.26;101561.09;4551813;28;20685;-63
2023/05/19 02:10:10;;;;;;;0.75;0.65;;;;;;;21.70;30.46;101565.19;4552412;28;20079;-63
2023/05/19 02:12:27;;;;;;;0.98;0.80;;;;;;;21.70;30.38;101562.31;4552525;28;20302;-63
2023/05/19 02:14:57;;;;;;;1.17;0.80;;;;;;;21.70;30.31;101568.06;4558173;28;21295;-63
2023/05/19 02:17:10;;;;;;;1.48;0.85;;;;;;;21.71;29.78;101563.97;4570501;27;20104;-64
2023/05/19 02:19:32;;;;;;;1.15;0.75;;;;;;;21.70;29.72;101565.19;4553948;28;20109;-63
2023/05/19 02:21:43;;;;;;;0.75;0.73;;;;;;;21.69;29.26;101559.78;4555812;28;20028;-63
2023/05/19 02:23:53;;;;;;;1.13;0.90;;;;;;;21.65;29.39;101555.91;4553417;28;20032;-62
2023/05/19 02:26:04;;;;;;;0.90;0.80;;;;;;;21.66;29.72;101552.69;4554788;28;20040;-63
2023/05/19 02:28:17;;;;;;;0.70;0.70;;;;;;;21.66;29.22;101558.44;4550316;28;20853;-62
2023/05/19 02:30:27;;;;;;;0.82;0.80;;;;;;;21.65;29.43;101558.78;4553772;28;20041;-63
2023/05/19 02:32:38;;;;;;;0.75;0.70;;;;;;;21.67;29.40;101560.13;4555234;28;20040;-63
2023/05/19 02:34:48;;;;;;;1.25;0.80;;;;;;;21.68;29.31;101558.09;4555595;28;20669;-63
2023/05/19 02:37:00;;;;;;;0.77;0.77;;;;;;;21.68;29.37;101558.94;4552086;28;20052;-63
2023/05/19 02:39:11;;;;;;;0.88;0.80;;;;;;;21.68;29.11;101564.69;4551921;28;20039;-63
2023/05/19 02:41:21;;;;;;;1.55;1.00;;;;;;;21.66;29.20;101560.50;4558434;28;20039;-63
2023/05/19 02:43:32;;;;;;;1.10;0.90;;;;;;;21.63;28.48;101558.28;4553473;28;20135;-63
2023/05/19 02:45:42;;;;;;;1.02;0.90;;;;;;;21.66;29.23;101552.69;4552822;28;20062;-63
2023/05/19 02:47:52;;;;;;;0.70;0.70;;;;;;;21.65;29.01;101556.78;4552210;28;20116;-62
2023/05/19 02:50:04;;;;;;;0.70;0.70;;;;;;;21.65;29.28;101559.66;4552793;28;20094;-62
2023/05/19 02:52:15;;;;;;;0.93;0.73;;;;;;;21.64;28.97;101552.22;4566818;27;20024;-62
2023/05/19 02:54:25;;;;;;;1.15;0.80;;;;;;;21.64;29.05;101549.34;4553644;28;20620;-63
2023/05/19 02:56:36;;;;;;;0.88;0.70;;;;;;;21.64;29.36;101552.22;4558989;28;20736;-62
2023/05/19 02:58:46;;;;;;;0.93;0.82;;;;;;;21.59;29.14;101548.72;4552224;28;20548;-62
2023/05/19 03:00:57;;;;;;;0.90;0.65;;;;;;;21.64;29.04;101551.38;4540524;28;20483;-62
2023/05/19 03:03:09;;;;;;;0.80;0.77;;;;;;;21.63;29.01;101549.69;4549759;28;20183;-62
2023/05/19 03:05:19;;;;;;;1.30;0.80;;;;;;;21.64;29.18;101554.25;4552091;28;20111;-63
2023/05/19 03:07:30;;;;;;;1.17;0.75;;;;;;;21.62;28.91;101560.34;4552161;28;20158;-63
2023/05/19 03:09:40;;;;;;;0.80;0.80;;;;;;;21.61;28.96;101550.03;4552249;28;20052;-63
2023/05/19 03:11:51;;;;;;;1.17;0.90;;;;;;;21.60;28.96;101553.25;4553497;27;20041;-63
2023/05/19 03:14:01;;;;;;;1.52;0.90;;;;;;;21.63;29.24;101555.41;4553721;28;20065;-65
2023/05/19 03:16:12;;;;;;;0.77;0.70;;;;;;;21.61;29.08;101552.91;4553383;28;20054;-63
2023/05/19 03:18:23;;;;;;;0.88;0.73;;;;;;;21.59;29.15;101558.19;4553741;28;20583;-63
2023/05/19 03:20:34;;;;;;;0.70;0.70;;;;;;;21.60;29.52;101551.22;4552305;28;20024;-63
2023/05/19 03:22:44;;;;;;;0.90;0.75;;;;;;;21.59;29.50;101549.56;4553653;28;20028;-63
2023/05/19 03:24:55;;;;;;;0.80;0.80;;;;;;;21.60;29.52;101548.34;4553625;28;20106;-63
2023/05/19 03:27:05;;;;;;;0.80;0.80;;;;;;;21.53;29.45;101530.84;4553552;28;20036;-63
2023/05/19 03:29:16;;;;;;;1.23;0.88;;;;;;;21.60;29.18;101551.22;4552514;28;20048;-63
2023/05/19 03:31:26;;;;;;;1.20;1.00;;;;;;;21.56;29.14;101541.66;4551620;28;20450;-62
2023/05/19 03:33:37;;;;;;;1.50;0.80;;;;;;;21.58;28.97;101544.16;4553074;28;20226;-63
2023/05/19 03:35:47;;;;;;;0.90;0.80;;;;;;;21.57;29.05;101542.47;4552007;28;20075;-63
2023/05/19 03:37:58;;;;;;;0.98;0.90;;;;;;;21.54;29.20;101543.19;4552189;28;20036;-62
2023/05/19 03:40:10;;;;;;;0.98;0.77;;;;;;;21.54;29.35;101546.91;4553489;28;20476;-63
2023/05/19 03:42:22;;;;;;;1.35;0.90;;;;;;;21.55;28.94;101550.63;4550369;28;20068;-63
2023/05/19 03:44:33;;;;;;;0.77;0.77;;;;;;;21.56;28.95;101549.41;4552695;28;20116;-62
2023/05/19 03:46:44;;;;;;;0.93;0.82;;;;;;;21.56;29.37;101553.13;4535252;28;20025;-63
2023/05/19 03:49:00;;;;;;;1.25;0.95;;;;;;;21.50;29.45;101548.78;4552080;28;20044;-62
2023/05/19 03:51:29;;;;;;;1.00;0.80;;;;;;;21.54;29.04;101552.66;4550284;28;20055;-63
2023/05/19 03:53:47;;;;;;;1.15;0.93;;;;;;;21.55;29.08;101553.50;4540780;28;20043;-63
2023/05/19 03:55:58;;;;;;;0.80;0.80;;;;;;;21.54;29.01;101563.28;4553755;28;20032;-63
2023/05/19 03:58:09;;;;;;;1.40;0.80;;;;;;;21.41;28.94;101533.66;4553475;28;20067;-63
2023/05/19 04:00:20;;;;;;;0.80;0.80;;;;;;;21.49;29.01;101549.97;4552900;28;20094;-63
2023/05/19 04:02:30;;;;;;;1.33;0.85;;;;;;;21.55;29.17;101554.31;4541546;28;20132;-63
2023/05/19 04:04:41;;;;;;;1.00;0.80;;;;;;;21.54;29.33;101558.38;4552699;28;20037;-62
2023/05/19 04:06:51;;;;;;;0.80;0.80;;;;;;;21.53;29.32;101562.44;4552189;28;20082;-63
2023/05/19 04:09:03;;;;;;;0.98;0.80;;;;;;;21.54;28.99;101564.13;4551676;28;20021;-63
2023/05/19 04:11:14;;;;;;;1.02;0.93;;;;;;;21.50;29.10;101563.13;4553002;28;20110;-62
2023/05/19 04:13:24;;;;;;;1.00;0.90;;;;;;;21.51;29.54;101570.59;4554004;28;20653;-63
2023/05/19 04:15:35;;;;;;;0.88;0.80;;;;;;;21.53;29.49;101575.97;4552716;28;20367;-63
2023/05/19 04:17:45;;;;;;;1.40;0.93;;;;;;;21.52;30.04;101574.28;4552604;28;20044;-63
2023/05/19 04:19:56;;;;;;;1.10;0.90;;;;;;;21.53;30.14;101582.53;4551831;28;20044;-62
2023/05/19 04:22:06;;;;;;;0.70;0.70;;;;;;;21.53;30.38;101584.59;4552948;28;20081;-63
2023/05/19 04:24:17;;;;;;;0.95;0.88;;;;;;;21.30;30.33;101534.41;4551933;28;20036;-63
2023/05/19 04:26:29;;;;;;;1.10;0.70;;;;;;;21.51;30.68;101575.47;4551550;28;20515;-63
2023/05/19 04:28:43;;;;;;;1.45;0.98;;;;;;;21.49;30.49;101575.84;4553691;27;20137;-62
2023/05/19 04:30:55;;;;;;;0.80;0.80;;;;;;;21.48;30.55;101570.44;4555508;28;20040;-63
2023/05/19 04:33:06;;;;;;;1.08;0.90;;;;;;;21.48;30.89;101571.28;4555045;28;20132;-62
2023/05/19 04:35:16;;;;;;;0.93;0.80;;;;;;;21.49;30.72;101572.09;4554979;28;20650;-63
2023/05/19 04:37:28;;;;;;;1.42;0.90;;;;;;;21.49;30.56;101572.97;4554864;28;20435;-65
2023/05/19 04:39:43;;;;;;;1.10;0.85;;;;;;;21.46;30.86;101570.78;4554882;28;20043;-62
2023/05/19 04:41:54;;;;;;;0.95;0.80;;;;;;;21.50;31.15;101580.38;4553115;28;20047;-63
2023/05/19 04:44:06;;;;;;;0.80;0.80;;;;;;;21.48;31.39;101571.28;4555253;28;20043;-62
2023/05/19 04:46:17;;;;;;;0.75;0.75;;;;;;;21.48;31.34;101577.03;4543069;28;20032;-63
2023/05/19 04:48:29;;;;;;;0.93;0.75;;;;;;;21.46;31.29;101572.81;4555179;28;20040;-63
2023/05/19 04:50:47;;;;;;;1.00;0.90;;;;;;;21.41;31.21;101565.25;4570801;27;20039;-63
2023/05/19 04:52:58;;;;;;;1.08;0.77;;;;;;;21.45;31.65;101572.00;4556201;28;20032;-62
2023/05/19 04:55:10;;;;;;;0.90;0.80;;;;;;;21.44;31.95;101576.03;4555261;28;20574;-63
2023/05/19 04:57:20;;;;;;;0.73;0.70;;;;;;;21.40;32.28;101563.56;4554467;28;20036;-62
2023/05/19 04:59:31;;;;;;;1.48;0.80;;;;;;;21.41;32.06;101553.75;4554306;28;20032;-62
2023/05/19 05:01:41;;;;;;;1.65;0.85;;;;;;;21.42;32.15;101566.91;4555637;28;20514;-63
2023/05/19 05:03:57;;;;;;;0.82;0.80;;;;;;;21.45;32.66;101574.88;4555841;28;20081;-63
2023/05/19 05:06:07;;;;;;;0.90;0.85;;;;;;;21.31;32.90;101541.84;4560462;27;20040;-63
2023/05/19 05:08:22;;;;;;;1.52;0.90;;;;;;;21.46;32.39;101573.66;4552424;28;20029;-63
2023/05/19 05:10:32;;;;;;;2.10;1.00;;;;;;;21.46;32.53;101567.06;4555058;28;20693;-63
2023/05/19 05:12:43;;;;;;;1.52;0.95;;;;;;;21.45;32.36;101560.50;4554958;28;20060;-62
2023/05/19 05:14:54;;;;;;;1.02;0.98;;;;;;;21.44;32.22;101563.69;4555622;28;20045;-63
2023/05/19 05:17:05;;;;;;;1.52;0.80;;;;;;;21.42;32.60;101561.16;4554338;28;20039;-63
2023/05/19 05:19:15;;;;;;;0.90;0.88;;;;;;;21.45;32.68;101571.13;4553274;28;20079;-63
2023/05/19 05:21:27;;;;;;;1.33;0.93;;;;;;;21.44;33.16;101563.69;4557964;28;20060;-63
2023/05/19 05:23:38;;;;;;;1.50;0.90;;;;;;;21.38;32.78;101553.59;4555058;28;20547;-63
2023/05/19 05:25:49;;;;;;;1.67;0.90;;;;;;;21.44;32.78;101570.28;4542090;28;20675;-63
2023/05/19 05:28:03;;;;;;;1.98;0.88;;;;;;;21.42;33.01;101566.09;4553258;28;20036;-63
2023/05/19 05:30:14;;;;;;;1.27;0.90;;;;;;;21.43;32.91;101567.78;4553983;28;20186;-63
2023/05/19 05:32:25;;;;;;;0.70;0.70;;;;;;;21.43;33.06;101568.63;4554907;28;20028;-63
2023/05/19 05:34:38;;;;;;;1.08;0.90;;;;;;;21.42;33.26;101561.16;4557138;28;20036;-64
2023/05/19 05:36:49;;;;;;;1.27;1.00;;;;;;;21.41;33.33;101565.25;4556001;28;20036;-66
2023/05/19 05:39:01;;;;;;;1.20;0.90;;;;;;;21.39;33.32;101567.63;4555207;28;20025;-65
2023/05/19 05:41:12;;;;;;;1.33;0.93;;;;;;;21.27;33.61;101541.72;4559686;28;20046;-64
2023/05/19 05:43:22;;;;;;;1.13;0.80;;;;;;;21.40;33.66;101569.31;4553468;28;20043;-63
2023/05/19 05:45:38;;;;;;;1.00;0.70;;;;;;;21.40;33.92;101560.69;4543145;28;20538;-63
2023/05/19 05:47:50;;;;;;;1.10;0.90;;;;;;;21.43;34.26;101568.63;4554818;28;20264;-65
2023/05/19 05:50:01;;;;;;;1.17;0.90;;;;;;;21.41;34.19;101571.00;4554208;28;20103;-64
2023/05/19 05:52:14;;;;;;;1.27;1.00;;;;;;;21.42;34.13;101574.72;4541969;28;20037;-63
2023/05/19 05:54:29;;;;;;;1.40;0.90;;;;;;;21.41;34.00;101571.00;4552000;28;20047;-65
2023/05/19 05:56:40;;;;;;;0.90;0.80;;;;;;;21.41;33.90;101573.00;4555547;28;20035;-63
2023/05/19 05:58:52;;;;;;;1.15;0.90;;;;;;;21.40;33.64;101571.34;4553670;28;20042;-65
2023/05/19 06:01:04;;;;;;;0.95;0.90;;;;;;;21.39;34.19;101563.94;4553556;28;20114;-64
2023/05/19 06:03:15;;;;;;;1.08;0.60;;;;;;;21.39;34.17;101567.63;4552824;28;20190;-63
2023/05/19 06:05:26;;;;;;;0.95;0.68;;;;;;;21.40;34.12;101568.47;4555449;28;20044;-63
2023/05/19 06:07:38;;;;;;;1.08;0.80;;;;;;;21.38;33.79;101565.94;4553039;28;20039;-62
2023/05/19 06:09:49;;;;;;;1.40;0.80;;;;;;;21.40;33.90;101562.72;4552797;28;20028;-63
2023/05/19 06:11:59;;;;;;;0.68;0.68;;;;;;;21.39;34.14;101566.81;4554332;28;20036;-62
2023/05/19 06:14:13;;;;;;;1.67;0.70;;;;;;;21.36;33.81;101559.69;4554128;28;20153;-63
2023/05/19 06:16:47;;;;;;;1.05;0.60;;;;;;;21.40;34.10;101571.34;4548217;28;20063;-63
2023/05/19 06:18:59;;;;;;;1.90;0.77;;;;;;;21.40;33.54;101574.22;4553357;28;20041;-63
2023/05/19 06:21:12;;;;;;;1.08;0.70;;;;;;;21.40;33.82;101572.19;4554345;28;20103;-63
2023/05/19 06:23:24;;;;;;;0.85;0.68;;;;;;;21.38;34.12;101568.81;4550612;28;20032;-63
2023/05/19 06:25:35;;;;;;;0.82;0.65;;;;;;;21.34;33.80;101556.38;4541334;28;20170;-61
2023/05/19 06:27:45;;;;;;;1.13;0.75;;;;;;;21.37;33.68;101570.03;4551864;28;22538;-63
2023/05/19 06:29:56;;;;;;;1.65;0.80;;;;;;;21.37;33.86;101570.03;4552209;28;20517;-63
2023/05/19 06:32:08;;;;;;;1.02;0.70;;;;;;;21.40;33.98;101572.19;4551849;28;20024;-62
2023/05/19 06:34:19;;;;;;;1.30;0.70;;;;;;;21.37;33.89;101558.53;4541251;28;20037;-63
2023/05/19 06:36:31;;;;;;;1.50;0.90;;;;;;;21.39;33.83;101567.63;4536534;28;20063;-63
2023/05/19 06:38:41;;;;;;;0.82;0.70;;;;;;;21.38;34.84;101565.94;4567486;27;21021;-63
2023/05/19 06:40:52;;;;;;;1.67;0.80;;;;;;;21.40;34.42;101563.56;4553278;28;20123;-62
2023/05/19 06:43:03;;;;;;;1.00;0.70;;;;;;;21.39;34.51;101563.94;4553272;28;20332;-63
2023/05/19 06:45:35;;;;;;;1.42;0.70;;;;;;;21.36;34.52;101561.75;4538735;28;20043;-63
2023/05/19 06:47:47;;;;;;;1.63;0.88;;;;;;;21.40;34.37;101568.47;4540519;28;20087;-62
2023/05/19 06:49:58;;;;;;;1.23;0.70;;;;;;;21.36;34.37;101556.84;4553240;28;20116;-63
2023/05/19 06:52:12;;;;;;;0.98;0.82;;;;;;;21.35;34.23;101558.03;4552348;28;20233;-62
2023/05/19 06:54:23;;;;;;;1.42;0.80;;;;;;;21.36;34.98;101550.28;4552519;28;20132;-63
2023/05/19 06:56:33;;;;;;;1.38;0.80;;;;;;;21.37;34.08;101552.78;4552306;28;20496;-63
2023/05/19 06:58:44;;;;;;;1.75;1.00;;;;;;;21.38;33.90;101557.34;4541851;28;20690;-63
2023/05/19 07:00:55;;;;;;;1.70;0.77;;;;;;;21.38;33.90;101553.59;4570054;27;20042;-63
2023/05/19 07:03:09;;;;;;;1.45;0.65;;;;;;;21.38;34.27;101551.59;4553143;28;20851;-62
2023/05/19 07:05:20;;;;;;;1.00;0.70;;;;;;;21.38;34.72;101553.59;4556968;28;20032;-63
2023/05/19 07:07:35;;;;;;;1.40;0.80;;;;;;;21.39;34.22;101547.50;4540831;28;20857;-63
2023/05/19 07:09:47;;;;;;;2.55;0.90;;;;;;;21.24;34.45;101525.19;4552450;28;20043;-62
2023/05/19 07:11:57;;;;;;;1.25;0.70;;;;;;;21.39;34.44;101556.13;4552614;28;20471;-63
2023/05/19 07:14:08;;;;;;;1.08;0.75;;;;;;;21.37;35.56;101549.91;4535246;28;20583;-62
2023/05/19 07:16:19;;;;;;;0.70;0.70;;;;;;;21.38;35.01;101550.75;4552562;28;20133;-62
2023/05/19 07:18:32;;;;;;;1.33;0.80;;;;;;;21.38;34.60;101553.59;4552533;28;20028;-63
2023/05/19 07:20:43;;;;;;;0.82;0.70;;;;;;;21.36;34.55;101545.34;4568867;27;20569;-62
2023/05/19 07:22:53;;;;;;;0.73;0.70;;;;;;;21.39;34.38;101550.38;4550451;28;20036;-62
2023/05/19 07:25:05;;;;;;;0.95;0.75;;;;;;;21.38;34.64;101537.22;4551469;28;20062;-62
2023/05/19 07:27:15;;;;;;;1.27;0.73;;;;;;;21.39;34.98;101540.94;4559427;28;20040;-63
2023/05/19 07:29:26;;;;;;;1.75;0.73;;;;;;;21.38;36.32;101537.22;4553159;28;20029;-62
2023/05/19 07:31:36;;;;;;;1.02;0.70;;;;;;;21.37;34.70;101529.81;4550363;28;20024;-63
2023/05/19 07:33:47;;;;;;;1.20;0.70;;;;;;;21.39;35.11;101527.41;4553044;28;20040;-62
2023/05/19 07:35:57;;;;;;;1.08;0.68;;;;;;;21.35;35.30;101532.19;4552307;28;20496;-62
2023/05/19 07:38:07;;;;;;;0.82;0.80;;;;;;;21.33;36.33;101531.69;4554200;28;20037;-62
2023/05/19 07:40:18;;;;;;;1.65;0.60;;;;;;;21.39;36.18;101538.91;4551815;27;20159;-63
2023/05/19 07:42:28;;;;;;;1.08;0.80;;;;;;;21.38;34.90;101531.47;4552529;28;20742;-63
2023/05/19 07:44:39;;;;;;;1.23;0.70;;;;;;;21.40;35.13;101534.00;4552158;28;20090;-63
2023/05/19 07:46:49;;;;;;;0.88;0.60;;;;;;;21.39;34.99;101530.28;4549537;28;20517;-63
2023/05/19 07:48:59;;;;;;;1.55;0.80;;;;;;;21.41;35.41;101522.16;4552131;28;20029;-63
2023/05/19 07:51:12;;;;;;;1.42;0.60;;;;;;;21.42;35.05;101528.75;4551424;28;20051;-63
2023/05/19 07:53:22;;;;;;;1.17;0.68;;;;;;;21.40;34.87;101522.53;4553633;28;20045;-63
2023/05/19 07:55:32;;;;;;;1.20;0.73;;;;;;;21.41;34.86;101522.16;4551399;28;20048;-63
2023/05/19 07:57:43;;;;;;;0.60;0.60;;;;;;;21.41;35.44;101524.19;4551911;28;20493;-63
2023/05/19 07:59:53;;;;;;;1.40;0.80;;;;;;;21.40;35.59;101526.25;4552365;28;20042;-63
2023/05/19 08:02:04;;;;;;;0.90;0.70;;;;;;;21.42;35.16;101526.72;4551901;28;20121;-64
2023/05/19 08:04:14;;;;;;;0.98;0.60;;;;;;;21.41;34.52;101521.31;4556217;28;20489;-63
2023/05/19 08:06:25;;;;;;;0.82;0.60;;;;;;;21.40;34.66;101523.38;4555989;28;20037;-63
2023/05/19 08:08:35;;;;;;;0.68;0.60;;;;;;;21.36;34.74;101513.75;4555540;28;20509;-63
2023/05/19 08:10:46;;;;;;;2.10;0.80;;;;;;;21.41;34.97;101510.69;4555386;28;20191;-63
2023/05/19 08:12:56;;;;;;;1.27;0.60;;;;;;;21.41;35.25;101522.16;4555043;28;20033;-63
2023/05/19 08:15:07;;;;;;;0.57;0.57;;;;;;;21.41;35.46;101513.53;4556638;28;20124;-65
2023/05/19 08:17:18;;;;;;;1.40;0.70;;;;;;;21.40;35.36;101509.00;4556122;28;20040;-66
2023/05/19 08:19:28;;;;;;;0.93;0.77;;;;;;;21.42;35.06;101514.41;4557544;28;20144;-64
2023/05/19 08:21:41;;;;;;;1.00;0.50;;;;;;;21.43;34.97;101513.19;4556118;28;20544;-64
2023/05/19 08:23:51;;;;;;;1.13;0.65;;;;;;;21.42;34.52;101505.78;4555801;28;20032;-63
2023/05/19 08:26:02;;;;;;;1.60;0.50;;;;;;;21.42;34.15;101498.00;4553757;28;20508;-63
2023/05/19 08:28:12;;;;;;;0.70;0.60;;;;;;;21.41;34.20;101502.06;4553616;28;20056;-63
2023/05/19 08:30:23;;;;;;;0.75;0.50;;;;;;;21.41;33.56;101490.56;4556662;28;20531;-63
2023/05/19 08:32:33;;;;;;;0.80;0.68;;;;;;;21.43;33.71;101505.44;4556198;28;20036;-64
2023/05/19 08:34:44;;;;;;;0.70;0.52;;;;;;;21.39;33.34;101487.19;4556016;28;20124;-63
2023/05/19 08:36:56;;;;;;;0.60;0.57;;;;;;;21.42;33.11;101495.13;4553932;28;20025;-63
2023/05/19 08:39:07;;;;;;;0.93;0.47;;;;;;;21.41;32.53;101486.84;4555232;28;20029;-63
2023/05/19 08:41:17;;;;;;;0.82;0.60;;;;;;;21.37;32.87;101480.16;4555413;28;20028;-63
2023/05/19 08:43:28;;;;;;;0.40;0.40;;;;;;;21.37;31.65;101481.00;4554954;28;20123;-63
2023/05/19 08:45:42;;;;;;;0.77;0.60;;;;;;;21.40;31.72;101480.28;4555713;28;20068;-63
2023/05/19 08:47:53;;;;;;;0.90;0.65;;;;;;;21.35;31.59;101474.75;4555131;28;20622;-63
2023/05/19 08:50:09;;;;;;;0.77;0.50;;;;;;;21.44;32.73;101483.28;4556371;28;20234;-63
2023/05/19 08:52:52;;;;;;;1.08;0.52;;;;;;;21.44;32.14;101480.41;4555673;28;20102;-63
2023/05/19 08:55:11;;;;;;;1.40;0.50;;;;;;;21.44;32.35;101478.38;4552793;28;20045;-63
2023/05/19 08:57:23;;;;;;;0.75;0.52;;;;;;;21.43;32.80;101476.72;4555197;28;20583;-63
2023/05/19 08:59:35;;;;;;;1.10;0.60;;;;;;;21.42;32.16;101463.53;4553786;28;20154;-63
2023/05/19 09:01:45;;;;;;;0.65;0.60;;;;;;;21.43;32.21;101464.38;4553912;28;20079;-63
2023/05/19 09:03:56;;;;;;;0.70;0.57;;;;;;;21.43;31.89;101459.47;4554257;28;20036;-63
2023/05/19 09:06:07;;;;;;;0.63;0.50;;;;;;;21.41;31.39;101452.38;4553346;28;21144;-63
2023/05/19 09:08:17;;;;;;;0.65;0.47;;;;;;;21.45;31.84;101459.13;4554162;28;20582;-63
2023/05/19 09:10:28;;;;;;;0.85;0.50;;;;;;;21.45;31.82;101459.97;4552889;28;20499;-63
2023/05/19 09:12:39;;;;;;;0.60;0.40;;;;;;;21.41;30.61;101456.09;4556315;28;20607;-63
2023/05/19 09:14:50;;;;;;;1.08;0.45;;;;;;;21.44;30.86;101449.66;4558830;28;20246;-63
2023/05/19 09:17:01;;;;;;;0.95;0.50;;;;;;;21.44;31.33;101449.66;4555211;28;20547;-63
2023/05/19 09:19:14;;;;;;;1.27;0.60;;;;;;;21.44;30.74;101449.66;4555598;28;20020;-63
2023/05/19 09:21:32;;;;;;;0.93;0.50;;;;;;;21.34;31.15;101427.13;4554927;28;20583;-64
2023/05/19 09:23:45;;;;;;;1.23;0.50;;;;;;;21.23;31.12;101411.50;4556151;28;20037;-63
2023/05/19 09:25:56;;;;;;;1.02;0.50;;;;;;;21.41;30.83;101432.28;4557024;28;20511;-64
2023/05/19 09:28:07;;;;;;;1.25;0.60;;;;;;;21.45;31.45;101439.88;4554929;28;20029;-63
2023/05/19 09:30:18;;;;;;;1.10;0.50;;;;;;;21.47;31.60;101448.13;4553640;28;20098;-63
2023/05/19 09:32:28;;;;;;;0.52;0.40;;;;;;;21.45;31.62;101439.88;4553854;28;20112;-63
2023/05/19 09:34:40;;;;;;;0.60;0.47;;;;;;;21.46;31.36;101441.53;4555260;28;20129;-63
2023/05/19 09:36:52;;;;;;;0.45;0.32;;;;;;;21.46;31.03;101435.78;4555234;28;20033;-63
2023/05/19 09:39:12;;;;;;;0.40;0.40;;;;;;;21.47;30.68;101436.63;4554758;28;20032;-63
2023/05/19 09:41:22;;;;;;;0.65;0.47;;;;;;;21.43;30.73;101421.28;4555524;28;20579;-64
2023/05/19 09:43:33;;;;;;;0.80;0.43;;;;;;;21.30;31.20;101408.91;4554773;28;20095;-63
2023/05/19 09:45:44;;;;;;;0.40;0.40;;;;;;;21.47;30.75;101433.78;4553467;28;20040;-63
2023/05/19 09:47:54;;;;;;;0.77;0.40;;;;;;;21.47;30.31;101420.22;4555368;28;20386;-63
2023/05/19 09:50:07;;;;;;;1.35;0.45;;;;;;;21.48;31.46;101427.66;4554892;28;20094;-65
2023/05/19 09:52:19;;;;;;;0.82;0.55;;;;;;;21.48;31.25;101429.69;4569775;27;20059;-64
2023/05/19 09:54:31;;;;;;;0.43;0.35;;;;;;;21.48;30.46;101421.06;4554374;28;20048;-64
2023/05/19 09:56:41;;;;;;;0.57;0.50;;;;;;;21.46;30.43;101423.44;4556256;28;20040;-64
2023/05/19 09:58:54;;;;;;;0.70;0.50;;;;;;;21.50;31.12;101421.56;4555713;28;20037;-65
2023/05/19 10:01:06;;;;;;;0.98;0.50;;;;;;;21.50;29.73;101413.78;4554020;28;20078;-61
2023/05/19 10:03:18;;;;;;;0.73;0.40;;;;;;;21.49;30.40;101417.00;4553857;28;20645;-62
2023/05/19 10:05:28;;;;;;;0.93;0.50;;;;;;;21.50;30.40;101408.03;4554753;28;20041;-62
2023/05/19 10:07:39;;;;;;;0.60;0.50;;;;;;;21.51;30.45;101417.50;4554128;28;20024;-62
2023/05/19 10:09:51;;;;;;;0.45;0.45;;;;;;;21.51;30.77;101406.00;4555556;28;20071;-62
2023/05/19 10:12:03;;;;;;;0.45;0.45;;;;;;;21.52;31.26;101408.53;4554496;28;20032;-62
2023/05/19 10:14:14;;;;;;;0.43;0.40;;;;;;;21.47;31.35;101391.50;4554389;28;20151;-62
2023/05/19 10:16:26;;;;;;;1.30;0.55;;;;;;;21.49;32.05;101402.63;4553283;28;20040;-62